Time;durP1;ratioP1;P1;durP2;ratioP2;P2;SDS_P1;SDS_P2;PMS_P1;PMS_P2;Temp;Humidity;BMP_temperature;BMP_pressure;BME280_temperature;BME280_humidity;BME280_pressure;Samples;Min_cycle;Max_cycle;Signal;HPM_P1;HPM_P2
2023/11/18 00:00:25;;;;;;;204.87;52.73;;;;;;;;;;5028030;28;20180;-44
2023/11/18 00:02:52;;;;;;;202.63;51.63;;;;;;;;;;5023177;28;20496;-44
2023/11/18 00:05:18;;;;;;;202.35;50.65;;;;;;;;;;5024070;28;20418;-43
2023/11/18 00:07:44;;;;;;;203.30;51.50;;;;;;;;;;5024418;28;20234;-44
2023/11/18 00:10:10;;;;;;;205.15;55.35;;;;;;;;;;5014948;28;20219;-44
2023/11/18 00:12:40;;;;;;;203.73;53.00;;;;;;;;;;5027322;28;20204;-44
2023/11/18 00:15:08;;;;;;;204.80;53.13;;;;;;;;;;5020656;28;20180;-44
2023/11/18 00:17:35;;;;;;;199.23;50.00;;;;;;;;;;5020847;28;20219;-43
2023/11/18 00:20:02;;;;;;;200.50;50.05;;;;;;;;;;5021485;28;20172;-44
2023/11/18 00:22:28;;;;;;;197.00;48.78;;;;;;;;;;5013110;28;20163;-44
2023/11/18 00:24:55;;;;;;;198.60;49.23;;;;;;;;;;5020511;28;20184;-44
2023/11/18 00:27:22;;;;;;;204.82;52.78;;;;;;;;;;5020372;28;20431;-44
2023/11/18 00:29:48;;;;;;;199.60;48.70;;;;;;;;;;5023812;28;20183;-44
2023/11/18 00:32:14;;;;;;;199.87;49.70;;;;;;;;;;5017658;28;20184;-44
2023/11/18 00:34:40;;;;;;;200.13;50.17;;;;;;;;;;5018662;28;20412;-43
2023/11/18 00:37:07;;;;;;;203.02;51.30;;;;;;;;;;5020955;28;20423;-44
2023/11/18 00:39:33;;;;;;;202.43;51.45;;;;;;;;;;5023857;28;20164;-44
2023/11/18 00:41:59;;;;;;;200.77;50.28;;;;;;;;;;5021328;28;20195;-44
2023/11/18 00:44:25;;;;;;;203.23;50.03;;;;;;;;;;5023936;28;20180;-44
2023/11/18 00:46:51;;;;;;;202.07;50.77;;;;;;;;;;5021177;28;20431;-44
2023/11/18 00:49:17;;;;;;;201.13;50.15;;;;;;;;;;5015809;28;20421;-44
2023/11/18 00:51:43;;;;;;;202.20;50.97;;;;;;;;;;5024300;28;20251;-44
2023/11/18 00:54:09;;;;;;;201.57;49.90;;;;;;;;;;5031416;28;20222;-44
2023/11/18 00:56:36;;;;;;;203.32;50.88;;;;;;;;;;5031620;28;20414;-44
2023/11/18 00:59:01;;;;;;;202.00;50.10;;;;;;;;;;5013330;28;20210;-44
2023/11/18 01:01:28;;;;;;;200.20;48.83;;;;;;;;;;5026348;28;20179;-44
2023/11/18 01:03:54;;;;;;;203.75;50.13;;;;;;;;;;5021385;28;20410;-44
2023/11/18 01:06:21;;;;;;;202.32;49.97;;;;;;;;;;5018017;28;20195;-44
2023/11/18 01:08:47;;;;;;;201.30;49.47;;;;;;;;;;5029189;28;20180;-44
2023/11/18 01:11:19;;;;;;;205.20;52.28;;;;;;;;;;5012581;28;20198;-44
2023/11/18 01:13:47;;;;;;;200.73;49.75;;;;;;;;;;5037439;28;20187;-44
2023/11/18 01:16:14;;;;;;;202.27;49.80;;;;;;;;;;5022763;28;20580;-44
2023/11/18 01:18:40;;;;;;;202.27;50.55;;;;;;;;;;5029624;28;20237;-44
2023/11/18 01:21:08;;;;;;;202.50;50.33;;;;;;;;;;5037467;28;20633;-44
2023/11/18 01:23:35;;;;;;;205.48;51.97;;;;;;;;;;5019902;28;20318;-44
2023/11/18 01:26:00;;;;;;;203.55;50.72;;;;;;;;;;5018218;28;20274;-44
2023/11/18 01:28:29;;;;;;;203.87;51.47;;;;;;;;;;4999205;28;20267;-44
2023/11/18 01:30:55;;;;;;;201.43;50.00;;;;;;;;;;5014112;28;20906;-44
2023/11/18 01:33:22;;;;;;;203.30;50.25;;;;;;;;;;5007036;28;20307;-44
2023/11/18 01:35:49;;;;;;;203.07;50.08;;;;;;;;;;5005836;28;20180;-44
2023/11/18 01:38:15;;;;;;;203.77;50.55;;;;;;;;;;5014465;28;20206;-44
2023/11/18 01:40:41;;;;;;;202.20;50.30;;;;;;;;;;4999033;28;20248;-44
2023/11/18 01:43:12;;;;;;;202.27;49.88;;;;;;;;;;5017866;28;20407;-44
2023/11/18 01:45:38;;;;;;;207.27;53.33;;;;;;;;;;5002514;28;20191;-43
2023/11/18 01:48:05;;;;;;;201.93;49.92;;;;;;;;;;5010377;28;20647;-44
2023/11/18 01:50:31;;;;;;;202.88;50.17;;;;;;;;;;5010507;28;20173;-44
2023/11/18 01:53:00;;;;;;;204.40;51.65;;;;;;;;;;4984744;28;20278;-44
2023/11/18 01:55:26;;;;;;;211.65;56.15;;;;;;;;;;5017810;28;20164;-44
2023/11/18 01:57:52;;;;;;;203.82;50.40;;;;;;;;;;4998485;28;20211;-44
2023/11/18 02:00:18;;;;;;;203.45;50.95;;;;;;;;;;5014285;28;20172;-44
2023/11/18 02:02:44;;;;;;;203.88;50.60;;;;;;;;;;5005768;28;20231;-44
2023/11/18 02:05:12;;;;;;;203.67;51.17;;;;;;;;;;5006141;28;20184;-44
2023/11/18 02:07:38;;;;;;;202.32;50.65;;;;;;;;;;5014315;28;20463;-44
2023/11/18 02:10:08;;;;;;;203.80;51.17;;;;;;;;;;4998449;28;20169;-44
2023/11/18 02:12:43;;;;;;;202.15;49.53;;;;;;;;;;5018170;28;20171;-43
2023/11/18 02:15:12;;;;;;;201.90;49.70;;;;;;;;;;5000646;28;20180;-44
2023/11/18 02:17:39;;;;;;;199.93;49.30;;;;;;;;;;5011560;28;20192;-44
2023/11/18 02:20:15;;;;;;;202.52;50.20;;;;;;;;;;5008110;28;20204;-44
2023/11/18 02:22:46;;;;;;;203.82;50.85;;;;;;;;;;5007625;28;20168;-43
2023/11/18 02:25:16;;;;;;;202.30;50.28;;;;;;;;;;5010755;28;20573;-44
2023/11/18 02:27:42;;;;;;;202.25;49.90;;;;;;;;;;4995023;28;20239;-44
2023/11/18 02:30:12;;;;;;;201.75;50.15;;;;;;;;;;5014955;28;20184;-44
2023/11/18 02:33:02;;;;;;;202.52;50.15;;;;;;;;;;4998396;28;20731;-43
2023/11/18 02:35:29;;;;;;;204.20;51.67;;;;;;;;;;5010259;28;20250;-44
2023/11/18 02:37:56;;;;;;;202.05;50.35;;;;;;;;;;5002912;28;20208;-44
2023/11/18 02:40:36;;;;;;;201.27;50.20;;;;;;;;;;5002532;28;20168;-44
2023/11/18 02:43:09;;;;;;;203.68;51.50;;;;;;;;;;5008890;28;20649;-44
2023/11/18 02:45:36;;;;;;;208.38;54.88;;;;;;;;;;4997160;28;20184;-44
2023/11/18 02:48:02;;;;;;;201.95;49.85;;;;;;;;;;5014450;28;20171;-45
2023/11/18 02:50:29;;;;;;;203.90;51.33;;;;;;;;;;4996116;28;20185;-44
2023/11/18 02:52:55;;;;;;;202.80;50.22;;;;;;;;;;5009060;28;20597;-44
2023/11/18 02:55:22;;;;;;;202.95;50.83;;;;;;;;;;5003880;28;20207;-44
2023/11/18 02:57:52;;;;;;;204.73;51.67;;;;;;;;;;5000655;28;20204;-44
2023/11/18 03:00:21;;;;;;;203.80;50.38;;;;;;;;;;5011574;28;20234;-44
2023/11/18 03:02:48;;;;;;;203.40;51.35;;;;;;;;;;4994750;28;20162;-44
2023/11/18 03:05:14;;;;;;;200.40;49.05;;;;;;;;;;5013366;28;20702;-44
2023/11/18 03:07:47;;;;;;;201.65;49.95;;;;;;;;;;4998662;28;20200;-44
2023/11/18 03:10:20;;;;;;;203.82;50.88;;;;;;;;;;5006109;28;20172;-44
2023/11/18 03:12:46;;;;;;;203.35;51.10;;;;;;;;;;5005319;28;20209;-44
2023/11/18 03:15:12;;;;;;;202.10;49.85;;;;;;;;;;4998876;28;20227;-44
2023/11/18 03:17:38;;;;;;;205.98;52.13;;;;;;;;;;5012788;28;20228;-44
2023/11/18 03:20:11;;;;;;;203.37;51.13;;;;;;;;;;4994306;28;20201;-44
2023/11/18 03:22:37;;;;;;;203.60;50.80;;;;;;;;;;5011416;28;20396;-44
2023/11/18 03:25:05;;;;;;;201.20;49.37;;;;;;;;;;5013386;28;20195;-44
2023/11/18 03:27:31;;;;;;;203.98;51.00;;;;;;;;;;5003976;28;20478;-44
2023/11/18 03:29:57;;;;;;;204.77;51.33;;;;;;;;;;4999219;28;20192;-44
2023/11/18 03:32:23;;;;;;;205.30;52.20;;;;;;;;;;5012243;28;20173;-44
2023/11/18 03:34:49;;;;;;;202.47;51.10;;;;;;;;;;4994000;28;20415;-45
2023/11/18 03:37:15;;;;;;;205.23;52.17;;;;;;;;;;5010290;28;20577;-44
2023/11/18 03:39:41;;;;;;;203.80;50.40;;;;;;;;;;5000523;28;20408;-44
2023/11/18 03:42:08;;;;;;;203.27;50.73;;;;;;;;;;5002605;28;20407;-44
2023/11/18 03:44:34;;;;;;;204.23;51.85;;;;;;;;;;5008572;28;20986;-44
2023/11/18 03:47:02;;;;;;;201.97;50.30;;;;;;;;;;4994325;28;20197;-45
2023/11/18 03:49:28;;;;;;;203.82;51.08;;;;;;;;;;5013410;28;20434;-44
2023/11/18 03:51:54;;;;;;;203.20;50.30;;;;;;;;;;4996693;28;20189;-44
2023/11/18 03:54:20;;;;;;;203.43;50.87;;;;;;;;;;5006411;28;20419;-44
2023/11/18 03:56:46;;;;;;;204.05;50.92;;;;;;;;;;5004196;28;20530;-44
2023/11/18 03:59:12;;;;;;;202.97;50.10;;;;;;;;;;4998085;28;20302;-45
2023/11/18 04:01:39;;;;;;;204.43;51.27;;;;;;;;;;5012613;28;20426;-44
2023/11/18 04:04:05;;;;;;;205.57;51.85;;;;;;;;;;4993388;28;20911;-45
2023/11/18 04:06:31;;;;;;;201.57;49.55;;;;;;;;;;5009486;28;20200;-44
2023/11/18 04:08:57;;;;;;;204.07;51.17;;;;;;;;;;5000459;28;20180;-44
2023/11/18 04:11:23;;;;;;;201.97;51.13;;;;;;;;;;5001553;28;20423;-45
2023/11/18 04:13:49;;;;;;;204.50;50.93;;;;;;;;;;5008582;28;20473;-44
2023/11/18 04:16:15;;;;;;;202.95;50.35;;;;;;;;;;4992938;28;20950;-44
2023/11/18 04:18:42;;;;;;;205.85;51.88;;;;;;;;;;5012736;28;20192;-44
2023/11/18 04:21:08;;;;;;;201.88;49.42;;;;;;;;;;4996908;28;20555;-44
2023/11/18 04:23:41;;;;;;;207.55;52.35;;;;;;;;;;5012834;28;20180;-44
2023/11/18 04:26:08;;;;;;;204.00;51.28;;;;;;;;;;5016244;28;20311;-44
2023/11/18 04:28:35;;;;;;;204.93;53.53;;;;;;;;;;5021344;28;20241;-44
2023/11/18 04:31:02;;;;;;;204.60;51.25;;;;;;;;;;5020793;28;20187;-44
2023/11/18 04:33:29;;;;;;;204.68;50.55;;;;;;;;;;5024756;28;20263;-44
2023/11/18 04:35:57;;;;;;;203.48;50.50;;;;;;;;;;5021232;28;20203;-44
2023/11/18 04:38:23;;;;;;;203.32;49.58;;;;;;;;;;5022054;28;20192;-44
2023/11/18 04:40:49;;;;;;;204.18;51.75;;;;;;;;;;5020540;28;20187;-44
2023/11/18 04:43:15;;;;;;;205.63;52.10;;;;;;;;;;5026720;28;20202;-44
2023/11/18 04:45:43;;;;;;;208.55;53.70;;;;;;;;;;5022057;28;20179;-43
2023/11/18 04:48:09;;;;;;;203.65;51.35;;;;;;;;;;5018270;28;20267;-43
2023/11/18 04:50:35;;;;;;;202.68;49.10;;;;;;;;;;5020502;28;20219;-44
2023/11/18 04:53:03;;;;;;;203.82;50.95;;;;;;;;;;5020336;28;20168;-44
2023/11/18 04:55:29;;;;;;;208.73;52.72;;;;;;;;;;5020126;28;20203;-44
2023/11/18 04:57:55;;;;;;;203.37;50.07;;;;;;;;;;5020062;28;20681;-44
2023/11/18 05:00:21;;;;;;;204.90;50.53;;;;;;;;;;5024929;28;20419;-44
2023/11/18 05:02:47;;;;;;;203.88;50.35;;;;;;;;;;5021948;28;20171;-43
2023/11/18 05:05:14;;;;;;;204.43;50.30;;;;;;;;;;5016888;28;20266;-43
2023/11/18 05:07:40;;;;;;;204.68;50.28;;;;;;;;;;5017659;28;20199;-43
2023/11/18 05:10:10;;;;;;;203.73;49.38;;;;;;;;;;5021004;28;20202;-43
2023/11/18 05:12:36;;;;;;;205.50;51.05;;;;;;;;;;5023674;28;20180;-44
2023/11/18 05:15:06;;;;;;;205.30;49.95;;;;;;;;;;5017465;28;20183;-44
2023/11/18 05:17:32;;;;;;;204.38;49.42;;;;;;;;;;5022130;28;20202;-45
2023/11/18 05:19:58;;;;;;;204.50;50.30;;;;;;;;;;5021607;28;20175;-43
2023/11/18 05:22:23;;;;;;;204.80;49.53;;;;;;;;;;5016229;28;20949;-44
2023/11/18 05:24:49;;;;;;;203.67;49.20;;;;;;;;;;5023245;28;20940;-44
2023/11/18 05:27:17;;;;;;;210.53;53.23;;;;;;;;;;5019637;28;20968;-44
2023/11/18 05:29:47;;;;;;;207.27;50.03;;;;;;;;;;5020550;28;20454;-43
2023/11/18 05:32:13;;;;;;;207.50;50.50;;;;;;;;;;5021768;28;20625;-45
2023/11/18 05:34:39;;;;;;;207.00;49.93;;;;;;;;;;5019808;28;20247;-45
2023/11/18 05:37:05;;;;;;;207.80;51.55;;;;;;;;;;5028100;28;20422;-44
2023/11/18 05:39:33;;;;;;;209.23;51.50;;;;;;;;;;5018702;28;20211;-44
2023/11/18 05:41:59;;;;;;;207.10;51.25;;;;;;;;;;5020107;28;20245;-44
2023/11/18 05:44:30;;;;;;;209.60;52.28;;;;;;;;;;5026658;28;20211;-44
2023/11/18 05:46:59;;;;;;;208.48;51.90;;;;;;;;;;5012454;28;20184;-44
2023/11/18 05:49:25;;;;;;;210.02;52.67;;;;;;;;;;5031352;28;20198;-44
2023/11/18 05:51:51;;;;;;;206.17;50.70;;;;;;;;;;5013923;28;20168;-44
2023/11/18 05:54:17;;;;;;;205.68;49.85;;;;;;;;;;5024791;28;20528;-44
2023/11/18 05:56:43;;;;;;;208.45;51.00;;;;;;;;;;5021626;28;20325;-44
2023/11/18 05:59:13;;;;;;;209.57;52.65;;;;;;;;;;5017861;28;20217;-45
2023/11/18 06:01:39;;;;;;;211.35;53.20;;;;;;;;;;5033418;28;20596;-45
2023/11/18 06:04:08;;;;;;;209.27;51.93;;;;;;;;;;5015164;28;20169;-45
2023/11/18 06:06:34;;;;;;;209.68;52.15;;;;;;;;;;5032424;28;20933;-44
2023/11/18 06:09:04;;;;;;;209.65;51.70;;;;;;;;;;5020984;28;20263;-44
2023/11/18 06:11:34;;;;;;;209.48;51.65;;;;;;;;;;5025198;28;20175;-45
2023/11/18 06:14:01;;;;;;;209.68;51.65;;;;;;;;;;5028167;28;20173;-44
2023/11/18 06:16:27;;;;;;;210.18;51.80;;;;;;;;;;5017082;28;20287;-45
2023/11/18 06:18:53;;;;;;;210.30;52.00;;;;;;;;;;5034684;28;20286;-45
2023/11/18 06:21:20;;;;;;;211.30;53.50;;;;;;;;;;5016092;28;20415;-44
2023/11/18 06:23:47;;;;;;;208.73;51.53;;;;;;;;;;5028950;28;20614;-45
2023/11/18 06:26:14;;;;;;;210.07;51.97;;;;;;;;;;5023695;28;20399;-44
2023/11/18 06:28:40;;;;;;;210.15;52.50;;;;;;;;;;5020957;28;20245;-45
2023/11/18 06:31:08;;;;;;;211.25;53.50;;;;;;;;;;5031884;28;20194;-45
2023/11/18 06:33:37;;;;;;;209.40;51.60;;;;;;;;;;5014715;28;20172;-44
2023/11/18 06:36:03;;;;;;;207.43;50.67;;;;;;;;;;5033174;28;20247;-45
2023/11/18 06:38:30;;;;;;;208.77;51.60;;;;;;;;;;5019124;28;20204;-45
2023/11/18 06:40:58;;;;;;;209.65;52.17;;;;;;;;;;5024864;28;20238;-44
2023/11/18 06:43:25;;;;;;;208.80;51.60;;;;;;;;;;5026198;28;20172;-44
2023/11/18 06:45:51;;;;;;;210.70;52.92;;;;;;;;;;5011186;28;20195;-45
2023/11/18 06:48:19;;;;;;;209.30;52.20;;;;;;;;;;4994797;28;20638;-45
2023/11/18 06:50:46;;;;;;;215.15;54.45;;;;;;;;;;5013885;28;20778;-45
2023/11/18 06:53:12;;;;;;;211.75;52.97;;;;;;;;;;4999115;28;20188;-44
2023/11/18 06:55:38;;;;;;;216.10;56.10;;;;;;;;;;5005428;28;20193;-45
2023/11/18 06:58:04;;;;;;;209.02;50.92;;;;;;;;;;5006992;28;20541;-44
2023/11/18 07:00:30;;;;;;;210.67;52.50;;;;;;;;;;4997765;28;20621;-44
2023/11/18 07:02:57;;;;;;;211.93;53.35;;;;;;;;;;5014153;28;20461;-44
2023/11/18 07:05:23;;;;;;;210.23;52.45;;;;;;;;;;4994866;28;20260;-45
2023/11/18 07:07:50;;;;;;;209.98;52.03;;;;;;;;;;5008921;28;20698;-44
2023/11/18 07:10:20;;;;;;;212.55;53.55;;;;;;;;;;5002598;28;20181;-43
2023/11/18 07:12:47;;;;;;;209.65;52.15;;;;;;;;;;5001646;28;20175;-44
2023/11/18 07:15:13;;;;;;;209.88;52.25;;;;;;;;;;5010367;28;20181;-44
2023/11/18 07:17:40;;;;;;;210.40;52.50;;;;;;;;;;4993886;28;20211;-44
2023/11/18 07:20:06;;;;;;;210.75;52.00;;;;;;;;;;5013232;28;20717;-44
2023/11/18 07:22:32;;;;;;;211.30;53.90;;;;;;;;;;5007459;28;20173;-45
2023/11/18 07:24:58;;;;;;;210.20;52.43;;;;;;;;;;5013232;28;20188;-44
2023/11/18 07:27:24;;;;;;;210.27;53.03;;;;;;;;;;5006442;28;20789;-44
2023/11/18 07:29:51;;;;;;;212.23;54.42;;;;;;;;;;4996829;28;20424;-44
2023/11/18 07:32:19;;;;;;;211.32;54.60;;;;;;;;;;5013654;28;20168;-44
2023/11/18 07:34:45;;;;;;;215.50;56.83;;;;;;;;;;4994054;28;20173;-44
2023/11/18 07:37:12;;;;;;;211.83;57.30;;;;;;;;;;5023035;28;20198;-44
2023/11/18 07:39:44;;;;;;;212.65;55.78;;;;;;;;;;5027628;28;20462;-44
2023/11/18 07:42:13;;;;;;;210.38;53.10;;;;;;;;;;5028417;28;20173;-44
2023/11/18 07:44:39;;;;;;;211.45;53.25;;;;;;;;;;5026802;28;20203;-44
2023/11/18 07:47:05;;;;;;;212.63;52.88;;;;;;;;;;5031435;28;20199;-44
2023/11/18 07:49:32;;;;;;;214.25;55.70;;;;;;;;;;5025713;28;20199;-44
2023/11/18 07:51:58;;;;;;;212.65;53.70;;;;;;;;;;5022317;28;20553;-44
2023/11/18 07:54:24;;;;;;;215.02;56.05;;;;;;;;;;5017838;28;20202;-44
2023/11/18 07:56:50;;;;;;;210.57;54.30;;;;;;;;;;5025302;28;20706;-44
2023/11/18 07:59:19;;;;;;;213.48;54.00;;;;;;;;;;5028922;28;20466;-43
2023/11/18 08:01:46;;;;;;;214.02;54.72;;;;;;;;;;5027016;28;20172;-44
2023/11/18 08:04:13;;;;;;;212.60;52.75;;;;;;;;;;5023459;28;20730;-44
2023/11/18 08:06:40;;;;;;;215.52;55.60;;;;;;;;;;5026044;28;20189;-44
2023/11/18 08:09:12;;;;;;;215.23;55.10;;;;;;;;;;5023981;28;20180;-43
2023/11/18 08:11:41;;;;;;;214.88;55.45;;;;;;;;;;5024201;28;20175;-45
2023/11/18 08:14:07;;;;;;;215.35;54.92;;;;;;;;;;5006302;28;20235;-45
2023/11/18 08:16:33;;;;;;;214.52;55.28;;;;;;;;;;5027361;28;20244;-44
2023/11/18 08:18:59;;;;;;;216.53;56.80;;;;;;;;;;5021343;28;20201;-45
2023/11/18 08:21:25;;;;;;;215.60;54.30;;;;;;;;;;5025268;28;20415;-44
2023/11/18 08:23:51;;;;;;;212.10;52.67;;;;;;;;;;5005945;28;20462;-44
2023/11/18 08:26:17;;;;;;;216.27;55.37;;;;;;;;;;5023531;28;20797;-44
2023/11/18 08:28:43;;;;;;;219.05;56.88;;;;;;;;;;5018353;28;20435;-44
2023/11/18 08:31:09;;;;;;;218.57;56.30;;;;;;;;;;5026205;28;20181;-44
2023/11/18 08:33:35;;;;;;;215.52;55.20;;;;;;;;;;5023815;28;20485;-44
2023/11/18 08:36:01;;;;;;;216.60;55.87;;;;;;;;;;5023369;28;20201;-44
2023/11/18 08:38:30;;;;;;;214.98;54.47;;;;;;;;;;5027997;28;20460;-45
2023/11/18 08:40:56;;;;;;;217.07;55.38;;;;;;;;;;5027841;28;20184;-44
2023/11/18 08:43:22;;;;;;;217.60;56.10;;;;;;;;;;5023385;28;20174;-44
2023/11/18 08:45:50;;;;;;;218.90;56.28;;;;;;;;;;5024137;28;20414;-44
2023/11/18 08:48:18;;;;;;;217.15;56.88;;;;;;;;;;5020981;28;20183;-44
2023/11/18 08:50:44;;;;;;;216.43;54.72;;;;;;;;;;5023265;28;20188;-44
2023/11/18 08:53:11;;;;;;;219.20;57.45;;;;;;;;;;5023444;28;20170;-44
2023/11/18 08:55:41;;;;;;;223.32;59.15;;;;;;;;;;5026024;28;20181;-44
2023/11/18 08:58:27;;;;;;;216.90;55.58;;;;;;;;;;5027918;28;20209;-44
2023/11/18 09:00:54;;;;;;;219.80;57.72;;;;;;;;;;5020752;28;20173;-44
2023/11/18 09:03:34;;;;;;;224.68;61.65;;;;;;;;;;5027446;28;20287;-44
2023/11/18 09:06:04;;;;;;;220.45;56.28;;;;;;;;;;5026938;28;20783;-44
2023/11/18 09:08:32;;;;;;;223.23;58.95;;;;;;;;;;5022167;28;20185;-44
2023/11/18 09:10:58;;;;;;;218.85;56.08;;;;;;;;;;5023343;28;20183;-44
2023/11/18 09:13:31;;;;;;;221.45;57.30;;;;;;;;;;5023382;28;20174;-44
2023/11/18 09:16:02;;;;;;;217.48;54.33;;;;;;;;;;5024316;28;20201;-44
2023/11/18 09:18:29;;;;;;;216.10;54.08;;;;;;;;;;5030807;28;20282;-44
2023/11/18 09:20:58;;;;;;;218.88;56.13;;;;;;;;;;5016274;28;20171;-44
2023/11/18 09:23:25;;;;;;;218.55;55.10;;;;;;;;;;5023112;28;20174;-44
2023/11/18 09:25:52;;;;;;;216.73;53.00;;;;;;;;;;5023602;28;20621;-44
2023/11/18 09:28:18;;;;;;;216.48;54.20;;;;;;;;;;5015115;28;20173;-44
2023/11/18 09:30:57;;;;;;;219.02;55.80;;;;;;;;;;5031662;28;20260;-44
2023/11/18 09:33:28;;;;;;;221.60;57.75;;;;;;;;;;4994104;28;20183;-44
2023/11/18 09:36:01;;;;;;;217.82;56.80;;;;;;;;;;5031535;28;20603;-44
2023/11/18 09:38:30;;;;;;;217.63;55.97;;;;;;;;;;5020641;28;20204;-44
2023/11/18 09:40:57;;;;;;;216.68;53.85;;;;;;;;;;5026440;28;20170;-43
2023/11/18 09:43:26;;;;;;;220.85;56.45;;;;;;;;;;5027795;28;20338;-44
2023/11/18 09:45:55;;;;;;;219.00;55.42;;;;;;;;;;5018397;28;20193;-44
2023/11/18 09:48:25;;;;;;;221.63;57.53;;;;;;;;;;5035283;28;20536;-44
2023/11/18 09:50:51;;;;;;;217.30;53.60;;;;;;;;;;4995980;28;20178;-45
2023/11/18 09:53:19;;;;;;;220.30;57.15;;;;;;;;;;5012228;28;20183;-44
2023/11/18 09:56:09;;;;;;;221.82;57.03;;;;;;;;;;5026878;28;20308;-44
2023/11/18 09:58:41;;;;;;;219.63;56.83;;;;;;;;;;5023616;28;20202;-44
2023/11/18 10:01:13;;;;;;;217.88;54.65;;;;;;;;;;5015507;28;20199;-44
2023/11/18 10:03:41;;;;;;;217.27;54.70;;;;;;;;;;5014945;28;20648;-44
2023/11/18 10:06:08;;;;;;;219.50;54.85;;;;;;;;;;5013759;28;20281;-44
2023/11/18 10:08:37;;;;;;;216.48;54.13;;;;;;;;;;4995504;28;20198;-44
2023/11/18 10:11:09;;;;;;;216.25;54.35;;;;;;;;;;5011462;28;20293;-44
2023/11/18 10:13:40;;;;;;;216.10;53.15;;;;;;;;;;5001045;28;20214;-44
2023/11/18 10:16:06;;;;;;;218.35;54.90;;;;;;;;;;5005432;28;20306;-44
2023/11/18 10:18:36;;;;;;;216.98;54.30;;;;;;;;;;5008123;28;20207;-44
2023/11/18 10:21:07;;;;;;;218.48;54.90;;;;;;;;;;4998206;28;20172;-44
2023/11/18 10:23:34;;;;;;;213.93;53.13;;;;;;;;;;5024930;28;20653;-44
2023/11/18 10:26:01;;;;;;;217.02;54.38;;;;;;;;;;5014496;28;20268;-44
2023/11/18 10:28:34;;;;;;;215.98;53.40;;;;;;;;;;4998941;28;20190;-45
2023/11/18 10:31:04;;;;;;;222.80;58.17;;;;;;;;;;5006434;28;20239;-44
2023/11/18 10:33:35;;;;;;;221.13;55.85;;;;;;;;;;5003361;28;20663;-44
2023/11/18 10:36:04;;;;;;;220.07;55.80;;;;;;;;;;4998299;28;20198;-43
2023/11/18 10:38:31;;;;;;;225.63;59.78;;;;;;;;;;5010403;28;20214;-44
2023/11/18 10:40:58;;;;;;;216.15;54.42;;;;;;;;;;4993696;28;20185;-43
2023/11/18 10:43:24;;;;;;;219.65;56.20;;;;;;;;;;5012451;28;20219;-45
2023/11/18 10:46:04;;;;;;;216.95;53.03;;;;;;;;;;4999435;28;20287;-43
2023/11/18 10:48:30;;;;;;;219.50;56.38;;;;;;;;;;5006246;28;20655;-45
2023/11/18 10:50:59;;;;;;;164.52;42.17;;;;;;;;;;5006685;28;20212;-45
2023/11/18 10:53:26;;;;;;;218.95;55.00;;;;;;;;;;4998407;28;20174;-44
2023/11/18 10:55:52;;;;;;;219.90;56.60;;;;;;;;;;5013709;28;20679;-44
2023/11/18 10:58:19;;;;;;;221.45;58.80;;;;;;;;;;4993886;28;20235;-44
2023/11/18 11:00:55;;;;;;;219.00;55.22;;;;;;;;;;5010326;28;20184;-44
2023/11/18 11:03:23;;;;;;;227.82;62.25;;;;;;;;;;5000751;28;20191;-44
2023/11/18 11:05:49;;;;;;;222.55;57.15;;;;;;;;;;5003436;28;20170;-44
2023/11/18 11:08:18;;;;;;;219.25;55.00;;;;;;;;;;5008580;28;20548;-44
2023/11/18 11:10:45;;;;;;;220.75;55.65;;;;;;;;;;4996063;28;20180;-44
2023/11/18 11:13:11;;;;;;;220.45;55.78;;;;;;;;;;5014025;28;20176;-44
2023/11/18 11:15:42;;;;;;;225.02;60.42;;;;;;;;;;4996078;28;20180;-44
2023/11/18 11:18:14;;;;;;;223.05;56.78;;;;;;;;;;5008319;28;20269;-43
2023/11/18 11:20:42;;;;;;;224.38;58.13;;;;;;;;;;5003021;28;20177;-44
2023/11/18 11:23:21;;;;;;;222.45;57.47;;;;;;;;;;5008175;28;20176;-45
2023/11/18 11:26:08;;;;;;;221.15;55.95;;;;;;;;;;5008732;28;20214;-44
2023/11/18 11:28:41;;;;;;;223.93;58.30;;;;;;;;;;4997451;28;20211;-44
2023/11/18 11:31:15;;;;;;;226.15;59.08;;;;;;;;;;5013354;28;20172;-45
2023/11/18 11:33:51;;;;;;;224.65;58.08;;;;;;;;;;4994290;28;20255;-44
2023/11/18 11:36:22;;;;;;;222.73;56.88;;;;;;;;;;5012117;28;20202;-44
2023/11/18 11:38:51;;;;;;;222.30;56.65;;;;;;;;;;4998117;28;20203;-44
2023/11/18 11:41:26;;;;;;;223.07;59.03;;;;;;;;;;5005227;28;20617;-44
2023/11/18 11:43:55;;;;;;;223.40;59.30;;;;;;;;;;5004843;28;20196;-45
2023/11/18 11:46:23;;;;;;;219.00;55.60;;;;;;;;;;4998351;28;20271;-45
2023/11/18 11:48:49;;;;;;;224.10;60.90;;;;;;;;;;5012096;28;20168;-45
2023/11/18 11:51:31;;;;;;;226.48;63.42;;;;;;;;;;4993523;28;20180;-45
2023/11/18 11:54:23;;;;;;;221.55;59.58;;;;;;;;;;5012697;28;20168;-45
2023/11/18 11:56:57;;;;;;;223.82;61.10;;;;;;;;;;4991803;28;20303;-45
2023/11/18 11:59:56;;;;;;;224.30;63.67;;;;;;;;;;5008834;28;20223;-45
2023/11/18 12:02:28;;;;;;;220.50;58.42;;;;;;;;;;4971059;28;20188;-45
2023/11/18 12:04:58;;;;;;;221.75;61.40;;;;;;;;;;5006126;28;20197;-45
2023/11/18 12:07:27;;;;;;;221.07;57.17;;;;;;;;;;5003528;28;20215;-45
2023/11/18 12:09:57;;;;;;;220.45;56.58;;;;;;;;;;4998799;28;20584;-44
2023/11/18 12:12:26;;;;;;;219.38;56.17;;;;;;;;;;5010894;28;20254;-45
2023/11/18 12:15:17;;;;;;;217.38;54.92;;;;;;;;;;4993264;28;20727;-45
2023/11/18 12:17:58;;;;;;;218.48;55.92;;;;;;;;;;4992975;28;20214;-45
2023/11/18 12:20:47;;;;;;;220.27;55.92;;;;;;;;;;5012234;28;20543;-44
2023/11/18 12:23:17;;;;;;;220.50;55.85;;;;;;;;;;5008558;28;20166;-44
2023/11/18 12:25:49;;;;;;;221.57;57.15;;;;;;;;;;5011922;28;20174;-45
2023/11/18 12:28:16;;;;;;;221.55;57.20;;;;;;;;;;5002171;28;20716;-44
2023/11/18 12:30:52;;;;;;;219.38;55.42;;;;;;;;;;5005599;28;20183;-45
2023/11/18 12:33:18;;;;;;;219.70;56.22;;;;;;;;;;5011869;28;20185;-44
2023/11/18 12:35:51;;;;;;;223.93;58.15;;;;;;;;;;5010693;28;20263;-44
2023/11/18 12:38:23;;;;;;;220.57;56.45;;;;;;;;;;4992535;28;20202;-45
2023/11/18 12:40:55;;;;;;;220.15;56.42;;;;;;;;;;5011574;28;20630;-45
2023/11/18 12:43:29;;;;;;;220.00;55.20;;;;;;;;;;4996611;28;20196;-44
2023/11/18 12:46:07;;;;;;;217.43;53.67;;;;;;;;;;5009772;28;20187;-44
2023/11/18 12:48:36;;;;;;;220.63;57.08;;;;;;;;;;5002444;28;20545;-44
2023/11/18 12:51:09;;;;;;;221.23;57.75;;;;;;;;;;4998987;28;20178;-44
2023/11/18 12:53:36;;;;;;;218.98;55.60;;;;;;;;;;5008694;28;20178;-44
2023/11/18 12:56:03;;;;;;;222.32;58.00;;;;;;;;;;4992109;28;20196;-44
2023/11/18 12:58:33;;;;;;;220.30;56.08;;;;;;;;;;5010890;28;20218;-44
2023/11/18 13:00:59;;;;;;;219.63;55.70;;;;;;;;;;4996303;28;20175;-44
2023/11/18 13:03:25;;;;;;;219.52;56.83;;;;;;;;;;5004798;28;20189;-45
2023/11/18 13:05:52;;;;;;;220.67;56.60;;;;;;;;;;5003244;28;20176;-44
2023/11/18 13:08:19;;;;;;;219.68;56.13;;;;;;;;;;4994711;28;20413;-44
2023/11/18 13:10:45;;;;;;;219.27;54.70;;;;;;;;;;5011868;28;20160;-44
2023/11/18 13:13:13;;;;;;;220.30;55.72;;;;;;;;;;4992319;28;20616;-45
2023/11/18 13:15:40;;;;;;;221.82;57.72;;;;;;;;;;5007368;28;20179;-44
2023/11/18 13:18:06;;;;;;;219.05;55.13;;;;;;;;;;4999784;28;20204;-44
2023/11/18 13:20:35;;;;;;;220.63;56.23;;;;;;;;;;4999339;28;20174;-44
2023/11/18 13:23:08;;;;;;;218.18;56.33;;;;;;;;;;5011358;28;20480;-44
2023/11/18 13:25:34;;;;;;;225.70;61.42;;;;;;;;;;5010929;28;20173;-45
2023/11/18 13:28:01;;;;;;;220.07;58.92;;;;;;;;;;4992610;28;20579;-45
2023/11/18 13:30:28;;;;;;;219.93;55.67;;;;;;;;;;5008588;28;20259;-44
2023/11/18 13:32:56;;;;;;;230.05;65.43;;;;;;;;;;4999427;28;20187;-44
2023/11/18 13:35:23;;;;;;;220.05;55.58;;;;;;;;;;5001660;28;20179;-44
2023/11/18 13:37:49;;;;;;;217.65;53.90;;;;;;;;;;5010987;28;20560;-44
2023/11/18 13:40:18;;;;;;;221.13;57.05;;;;;;;;;;5010751;28;20531;-44
2023/11/18 13:42:48;;;;;;;221.68;58.08;;;;;;;;;;4992068;28;20303;-45
2023/11/18 13:45:19;;;;;;;220.48;57.03;;;;;;;;;;5009384;28;20188;-44
2023/11/18 13:47:54;;;;;;;219.68;54.72;;;;;;;;;;4997034;28;20187;-44
2023/11/18 13:50:20;;;;;;;217.93;55.08;;;;;;;;;;5003462;28;20183;-44
2023/11/18 13:52:47;;;;;;;220.98;57.13;;;;;;;;;;5003985;28;20263;-44
2023/11/18 13:55:25;;;;;;;220.32;54.85;;;;;;;;;;4995361;28;20775;-44
2023/11/18 13:57:52;;;;;;;217.70;54.17;;;;;;;;;;5010410;28;20199;-44
2023/11/18 14:00:23;;;;;;;216.80;53.95;;;;;;;;;;4991893;28;20195;-44
2023/11/18 14:02:49;;;;;;;218.90;55.92;;;;;;;;;;5009112;28;20257;-44
2023/11/18 14:05:19;;;;;;;217.38;54.75;;;;;;;;;;4997705;28;20674;-44
2023/11/18 14:07:46;;;;;;;217.55;54.00;;;;;;;;;;5001113;28;20195;-44
2023/11/18 14:10:17;;;;;;;217.00;53.78;;;;;;;;;;5005547;28;20177;-45